Time;durP1;ratioP1;P1;durP2;ratioP2;P2;SDS_P1;SDS_P2;PMS_P1;PMS_P2;Temp;Humidity;BMP_temperature;BMP_pressure;BME280_temperature;BME280_humidity;BME280_pressure;Samples;Min_cycle;Max_cycle;Signal;HPM_P1;HPM_P2
2023/07/06 00:00:44;;;;;;;9.13;4.90;;;13.20;99.90;;;;;;4731833;30;20236;-81
2023/07/06 00:03:11;;;;;;;10.73;5.13;;;13.10;99.90;;;;;;4726265;30;20231;-79
2023/07/06 00:05:44;;;;;;;9.07;4.90;;;13.10;99.90;;;;;;4743430;30;20234;-81
2023/07/06 00:08:13;;;;;;;7.93;4.97;;;13.00;99.90;;;;;;4744570;30;20220;-79
2023/07/06 00:10:43;;;;;;;8.17;5.30;;;13.10;99.90;;;;;;4745323;30;20226;-79
2023/07/06 00:13:11;;;;;;;8.50;5.03;;;13.10;99.90;;;;;;4732694;30;20316;-80
2023/07/06 00:15:41;;;;;;;12.27;5.07;;;13.00;99.90;;;;;;4733299;30;20693;-81
2023/07/06 00:18:10;;;;;;;8.73;5.70;;;13.00;99.90;;;;;;4732749;30;20227;-80
2023/07/06 00:20:37;;;;;;;8.93;5.20;;;13.10;99.90;;;;;;4747856;30;20204;-79
2023/07/06 00:23:05;;;;;;;12.17;6.00;;;13.10;99.90;;;;;;4740417;30;20635;-79
2023/07/06 00:25:33;;;;;;;9.90;5.70;;;13.10;99.90;;;;;;4746227;30;20677;-79
2023/07/06 00:28:04;;;;;;;8.37;5.50;;;13.00;99.90;;;;;;4741022;30;20780;-79
2023/07/06 00:33:19;;;;;;;9.17;5.50;;;13.20;99.90;;;;;;4747266;30;20220;-80
2023/07/06 00:35:47;;;;;;;10.77;6.03;;;13.20;99.90;;;;;;4731681;30;20208;-78
2023/07/06 00:38:18;;;;;;;11.13;5.73;;;13.20;99.90;;;;;;4730970;30;20637;-81
2023/07/06 00:40:50;;;;;;;10.43;5.87;;;13.30;99.90;;;;;;4745959;30;20204;-79
2023/07/06 00:43:22;;;;;;;10.13;6.00;;;13.30;99.90;;;;;;4748101;30;20280;-80
2023/07/06 00:46:09;;;;;;;11.07;6.77;;;13.40;99.90;;;;;;4723648;30;20690;-81
2023/07/06 00:48:39;;;;;;;9.83;7.03;;;13.40;99.90;;;;;;4740629;30;20216;-78
2023/07/06 00:51:12;;;;;;;10.37;6.13;;;13.40;99.90;;;;;;4741950;30;20572;-79
2023/07/06 00:53:44;;;;;;;10.73;6.00;;;13.40;99.90;;;;;;4744540;30;20216;-78
2023/07/06 00:56:16;;;;;;;11.87;6.10;;;13.50;99.90;;;;;;4733630;30;20224;-80
2023/07/06 00:58:46;;;;;;;12.93;6.50;;;13.50;99.90;;;;;;4723810;30;20713;-80
2023/07/06 01:01:19;;;;;;;9.17;5.53;;;13.60;99.90;;;;;;4728338;30;20233;-80
2023/07/06 01:03:52;;;;;;;10.73;6.40;;;13.70;99.90;;;;;;4724979;30;20221;-81
2023/07/06 01:06:41;;;;;;;14.23;6.77;;;13.70;99.90;;;;;;4722312;30;20364;-81
2023/07/06 01:09:11;;;;;;;10.17;5.70;;;13.70;99.90;;;;;;4721158;30;20228;-79
2023/07/06 01:11:41;;;;;;;10.30;5.37;;;13.70;99.90;;;;;;4722055;30;20676;-79
2023/07/06 01:14:12;;;;;;;9.77;5.80;;;13.80;99.90;;;;;;4723884;30;20220;-79
2023/07/06 01:17:00;;;;;;;9.57;6.77;;;13.80;99.90;;;;;;4723864;30;20248;-80
2023/07/06 01:19:40;;;;;;;10.77;6.57;;;14.00;99.90;;;;;;4726114;30;20659;-80
2023/07/06 01:22:27;;;;;;;13.90;7.23;;;13.90;99.90;;;;;;4727251;30;20225;-81
2023/07/06 01:25:29;;;;;;;12.00;6.77;;;14.00;99.90;;;;;;4723249;30;20224;-80
2023/07/06 01:28:18;;;;;;;14.77;6.47;;;14.00;99.90;;;;;;4726059;30;20220;-80
2023/07/06 01:31:07;;;;;;;12.40;7.17;;;14.10;99.90;;;;;;4723595;30;20248;-79
2023/07/06 01:33:47;;;;;;;11.33;7.07;;;14.00;99.90;;;;;;4723806;30;20221;-81
2023/07/06 01:36:19;;;;;;;12.73;6.67;;;14.10;99.90;;;;;;4724982;30;20216;-79
2023/07/06 01:38:49;;;;;;;13.30;6.53;;;14.10;99.90;;;;;;4721571;30;20220;-80
2023/07/06 01:41:26;;;;;;;13.80;6.87;;;14.20;99.90;;;;;;4728983;30;20225;-81
2023/07/06 01:43:53;;;;;;;13.27;6.87;;;14.20;99.90;;;;;;4727980;30;20212;-80
2023/07/06 01:46:20;;;;;;;10.83;6.70;;;14.20;99.90;;;;;;4726136;30;20254;-79
2023/07/06 01:48:47;;;;;;;12.33;6.33;;;14.20;99.90;;;;;;4729009;30;20231;-79
2023/07/06 01:51:21;;;;;;;10.17;6.70;;;14.30;99.90;;;;;;4726484;30;20213;-79
2023/07/06 01:54:11;;;;;;;12.87;6.60;;;14.20;99.90;;;;;;4740349;30;20220;-80
2023/07/06 01:56:53;;;;;;;13.00;6.30;;;14.20;99.90;;;;;;4726610;30;20259;-80
2023/07/06 01:59:25;;;;;;;13.27;7.23;;;14.30;99.90;;;;;;4746622;30;20270;-80
2023/07/06 02:01:59;;;;;;;14.23;7.40;;;14.20;99.90;;;;;;4744248;30;20759;-80
2023/07/06 02:04:33;;;;;;;10.90;6.60;;;14.40;99.90;;;;;;4738606;30;20212;-80
2023/07/06 02:07:03;;;;;;;14.30;7.50;;;14.40;99.90;;;;;;4731532;30;20290;-79
2023/07/06 02:09:30;;;;;;;11.17;6.30;;;14.40;99.90;;;;;;4741458;30;20215;-80
2023/07/06 02:11:58;;;;;;;14.27;7.40;;;14.40;99.90;;;;;;4741068;30;20213;-80
2023/07/06 02:14:25;;;;;;;13.73;6.63;;;14.40;99.90;;;;;;4741604;30;20213;-79
2023/07/06 02:16:52;;;;;;;12.27;7.30;;;14.40;99.90;;;;;;4740846;30;20235;-80
2023/07/06 02:19:20;;;;;;;11.53;6.83;;;14.40;99.90;;;;;;4742300;30;20288;-82
2023/07/06 02:21:50;;;;;;;12.00;6.50;;;14.40;99.90;;;;;;4725579;30;20216;-80
2023/07/06 02:24:17;;;;;;;11.23;6.67;;;14.40;99.90;;;;;;4741445;30;20208;-80
2023/07/06 02:26:45;;;;;;;12.40;7.03;;;14.40;99.90;;;;;;4746052;30;20637;-81
2023/07/06 02:29:14;;;;;;;11.87;7.63;;;14.40;99.90;;;;;;4741636;30;20221;-79
2023/07/06 02:31:42;;;;;;;12.43;6.50;;;14.40;99.90;;;;;;4743143;30;20216;-80
2023/07/06 02:34:09;;;;;;;18.13;7.40;;;14.40;99.90;;;;;;4745288;30;20213;-80
2023/07/06 02:36:37;;;;;;;13.93;7.80;;;14.40;99.90;;;;;;4745145;30;20223;-79
2023/07/06 02:39:04;;;;;;;12.17;6.63;;;14.30;99.90;;;;;;4743755;30;20236;-81
2023/07/06 02:41:32;;;;;;;11.87;6.87;;;14.30;99.90;;;;;;4739182;30;20212;-80
2023/07/06 02:43:58;;;;;;;11.00;7.03;;;14.50;99.90;;;;;;4731615;30;20200;-79
2023/07/06 02:46:25;;;;;;;13.90;7.17;;;14.30;99.90;;;;;;4728857;30;20293;-80
2023/07/06 02:48:52;;;;;;;18.67;7.90;;;14.50;99.90;;;;;;4741367;30;20228;-83
2023/07/06 02:51:22;;;;;;;13.90;6.93;;;14.40;99.90;;;;;;4717781;30;20229;-79
2023/07/06 02:53:49;;;;;;;13.90;7.07;;;14.30;99.90;;;;;;4727610;30;20600;-80
2023/07/06 02:56:16;;;;;;;15.23;7.17;;;14.40;99.90;;;;;;4746659;30;20258;-81
2023/07/06 02:58:43;;;;;;;10.50;6.63;;;14.40;99.90;;;;;;4742856;30;20331;-79
2023/07/06 03:01:12;;;;;;;13.67;7.67;;;14.30;99.90;;;;;;4741449;30;20220;-81
2023/07/06 03:03:39;;;;;;;13.63;7.90;;;14.40;99.90;;;;;;4735395;30;20697;-80
2023/07/06 03:06:06;;;;;;;16.13;7.63;;;14.50;99.90;;;;;;4738593;30;20355;-79
2023/07/06 03:08:33;;;;;;;12.73;7.53;;;14.40;99.90;;;;;;4739677;30;20224;-81
2023/07/06 03:11:07;;;;;;;16.50;8.03;;;14.40;99.90;;;;;;4747273;30;20216;-81
2023/07/06 03:13:37;;;;;;;11.57;7.80;;;14.50;99.90;;;;;;4725827;30;20255;-81
2023/07/06 03:16:05;;;;;;;14.23;8.03;;;14.50;99.90;;;;;;4738930;30;20248;-79
2023/07/06 03:18:32;;;;;;;14.43;8.20;;;14.50;99.90;;;;;;4735726;30;20223;-80
2023/07/06 03:21:02;;;;;;;15.00;8.00;;;14.40;99.90;;;;;;4744421;30;20673;-81
2023/07/06 03:23:29;;;;;;;15.50;8.67;;;14.50;99.90;;;;;;4739794;30;20231;-81
2023/07/06 03:25:56;;;;;;;18.37;8.87;;;14.50;99.90;;;;;;4744239;30;20219;-81
2023/07/06 03:28:23;;;;;;;14.40;8.80;;;14.40;99.90;;;;;;4720851;30;20243;-79
2023/07/06 03:30:57;;;;;;;16.50;8.23;;;14.50;99.90;;;;;;4744771;30;20483;-80
2023/07/06 03:33:28;;;;;;;15.13;8.33;;;14.50;99.90;;;;;;4741273;30;20677;-80
2023/07/06 03:35:58;;;;;;;15.17;8.27;;;14.50;99.90;;;;;;4742345;30;20209;-80
2023/07/06 03:38:26;;;;;;;15.30;8.20;;;14.50;99.90;;;;;;4741730;30;20212;-80
2023/07/06 03:40:53;;;;;;;14.50;8.03;;;14.50;99.90;;;;;;4743939;30;20320;-82
2023/07/06 03:43:20;;;;;;;13.60;8.60;;;14.50;99.90;;;;;;4741907;30;20249;-79
2023/07/06 03:45:48;;;;;;;14.00;8.27;;;14.40;99.90;;;;;;4740585;30;20355;-80
2023/07/06 03:48:15;;;;;;;15.37;8.93;;;14.50;99.90;;;;;;4744631;30;20732;-81
2023/07/06 03:50:43;;;;;;;15.33;8.03;;;14.50;99.90;;;;;;4744480;30;20262;-83
2023/07/06 03:53:12;;;;;;;12.30;7.70;;;14.40;99.90;;;;;;4740510;30;20227;-79
2023/07/06 03:55:40;;;;;;;13.83;7.60;;;14.50;99.90;;;;;;4739793;30;20208;-80
2023/07/06 03:58:07;;;;;;;14.27;7.90;;;14.50;99.90;;;;;;4743738;30;20284;-78
2023/07/06 04:00:41;;;;;;;14.87;8.03;;;14.50;99.90;;;;;;4742514;30;20722;-80
2023/07/06 04:03:08;;;;;;;13.30;8.00;;;14.40;99.90;;;;;;4743291;30;20312;-80
2023/07/06 04:05:38;;;;;;;23.80;8.93;;;14.40;99.90;;;;;;4728087;30;20236;-81
2023/07/06 04:08:11;;;;;;;18.17;8.27;;;14.40;99.90;;;;;;4744774;30;20244;-80
2023/07/06 04:10:40;;;;;;;14.70;7.43;;;14.40;99.90;;;;;;4740835;30;20215;-79
2023/07/06 04:13:08;;;;;;;12.63;8.27;;;14.40;99.90;;;;;;4744249;30;20224;-81
2023/07/06 04:15:36;;;;;;;13.43;7.90;;;14.40;99.90;;;;;;4732006;30;20234;-79
2023/07/06 04:18:05;;;;;;;16.43;8.30;;;14.40;99.90;;;;;;4742057;30;20224;-81
2023/07/06 04:20:36;;;;;;;13.10;7.63;;;14.50;99.90;;;;;;4737131;30;20216;-79
2023/07/06 04:23:03;;;;;;;15.97;8.00;;;14.50;99.90;;;;;;4740399;30;20221;-79
2023/07/06 04:25:33;;;;;;;15.37;8.00;;;14.50;99.90;;;;;;4743535;30;20701;-79
2023/07/06 04:28:10;;;;;;;14.33;8.37;;;14.50;99.90;;;;;;4735889;30;20236;-80
2023/07/06 04:30:41;;;;;;;11.73;7.20;;;14.50;99.90;;;;;;4756102;30;20231;-81
2023/07/06 04:33:14;;;;;;;13.50;7.50;;;14.50;99.90;;;;;;4752163;30;20204;-81
2023/07/06 04:35:41;;;;;;;12.57;7.80;;;14.50;99.90;;;;;;4750046;30;20218;-80
2023/07/06 04:38:11;;;;;;;15.43;8.43;;;14.50;99.90;;;;;;4731264;30;20208;-80
2023/07/06 04:40:41;;;;;;;13.07;7.70;;;14.50;99.90;;;;;;4747534;30;20220;-81
2023/07/06 04:43:10;;;;;;;11.07;6.90;;;14.50;99.90;;;;;;4744357;30;20733;-79
2023/07/06 04:45:37;;;;;;;14.53;7.47;;;14.60;99.90;;;;;;4746346;30;20291;-82
2023/07/06 04:48:05;;;;;;;16.10;8.00;;;14.50;99.90;;;;;;4743998;30;20293;-80
2023/07/06 04:50:32;;;;;;;15.20;7.53;;;14.70;99.90;;;;;;4727269;30;20221;-80
2023/07/06 04:53:01;;;;;;;11.37;7.20;;;14.70;99.90;;;;;;4743317;30;20200;-82
2023/07/06 04:55:31;;;;;;;10.60;6.83;;;14.80;99.90;;;;;;4745706;30;20615;-80
2023/07/06 04:57:59;;;;;;;9.20;6.30;;;14.70;99.90;;;;;;4730759;30;20743;-78
2023/07/06 05:00:33;;;;;;;11.70;6.73;;;14.80;99.90;;;;;;4724994;30;20645;-79
2023/07/06 05:03:03;;;;;;;14.93;7.10;;;14.80;99.90;;;;;;4722850;30;20248;-79
2023/07/06 05:05:38;;;;;;;13.77;6.77;;;14.80;99.90;;;;;;4724322;30;20248;-80
2023/07/06 05:08:14;;;;;;;11.47;7.20;;;14.90;99.90;;;;;;4728403;30;20248;-79
2023/07/06 05:10:50;;;;;;;19.83;7.37;;;14.90;99.90;;;;;;4728754;30;20208;-80
2023/07/06 05:13:20;;;;;;;11.57;6.53;;;14.90;99.90;;;;;;4722886;30;20216;-82
2023/07/06 05:15:50;;;;;;;14.10;6.87;;;14.80;99.90;;;;;;4729786;30;20307;-80
2023/07/06 05:18:19;;;;;;;11.43;6.67;;;14.90;99.90;;;;;;4723678;30;20213;-82
2023/07/06 05:20:50;;;;;;;14.37;7.00;;;14.80;99.90;;;;;;4722590;30;20597;-80
2023/07/06 05:23:23;;;;;;;12.47;6.60;;;14.90;99.90;;;;;;4727705;30;20274;-79
2023/07/06 05:26:00;;;;;;;11.77;6.13;;;14.80;99.90;;;;;;4727777;30;20228;-80
2023/07/06 05:28:29;;;;;;;10.70;6.17;;;14.90;99.90;;;;;;4724396;30;20244;-80
2023/07/06 05:30:57;;;;;;;14.87;6.47;;;15.00;99.90;;;;;;4727588;30;20224;-80
2023/07/06 05:33:25;;;;;;;11.13;5.97;;;14.90;99.90;;;;;;4726656;30;20229;-81
2023/07/06 05:35:52;;;;;;;16.33;6.07;;;15.00;99.90;;;;;;4724206;30;20205;-79
2023/07/06 05:38:20;;;;;;;12.87;6.17;;;15.10;99.90;;;;;;4728148;30;20213;-79
2023/07/06 05:40:46;;;;;;;9.73;5.93;;;15.20;99.90;;;;;;4727924;30;20213;-80
2023/07/06 05:43:18;;;;;;;10.53;5.80;;;15.20;99.90;;;;;;4722043;30;20252;-78
2023/07/06 05:45:47;;;;;;;8.63;5.53;;;15.30;99.90;;;;;;4723074;30;20232;-79
2023/07/06 05:48:14;;;;;;;13.07;6.50;;;15.20;99.90;;;;;;4728267;30;20237;-81
2023/07/06 05:50:41;;;;;;;11.83;6.20;;;15.30;99.90;;;;;;4726245;30;20228;-80
2023/07/06 05:53:07;;;;;;;11.73;5.93;;;15.30;99.90;;;;;;4724396;30;20222;-78
2023/07/06 05:55:36;;;;;;;12.77;6.53;;;15.30;99.90;;;;;;4722242;30;20263;-79
2023/07/06 05:58:03;;;;;;;16.80;6.20;;;15.40;99.90;;;;;;4732666;30;20236;-79
2023/07/06 06:00:36;;;;;;;9.10;5.60;;;15.50;99.90;;;;;;4749070;30;20672;-81
2023/07/06 06:03:04;;;;;;;8.50;5.47;;;15.40;99.90;;;;;;4738146;30;20205;-79
2023/07/06 06:05:33;;;;;;;14.45;6.07;;;15.50;99.90;;;;;;4735388;30;20204;-79
2023/07/06 06:08:03;;;;;;;9.98;6.40;;;15.50;99.90;;;;;;4732849;30;20235;-80
2023/07/06 06:10:31;;;;;;;10.80;5.93;;;15.60;99.90;;;;;;4744915;30;20681;-80
2023/07/06 06:12:59;;;;;;;12.05;6.28;;;15.70;99.90;;;;;;4749515;30;20403;-80
2023/07/06 06:15:27;;;;;;;11.70;6.20;;;16.00;99.90;;;;;;4746184;30;20278;-79
2023/07/06 06:17:56;;;;;;;14.25;7.25;;;16.10;99.90;;;;;;4743847;30;20212;-80
2023/07/06 06:20:25;;;;;;;13.50;6.35;;;16.30;99.90;;;;;;4744679;30;20208;-79
2023/07/06 06:22:52;;;;;;;11.60;6.63;;;16.40;99.90;;;;;;4732452;30;20223;-80
2023/07/06 06:25:19;;;;;;;10.98;5.95;;;16.90;99.90;;;;;;4756535;30;20216;-79
2023/07/06 06:27:46;;;;;;;9.05;5.30;;;17.50;99.90;;;;;;4741302;30;20237;-80
2023/07/06 06:30:14;;;;;;;12.45;6.18;;;18.20;99.90;;;;;;4749595;30;20229;-80
2023/07/06 06:32:42;;;;;;;11.60;5.43;;;18.90;99.90;;;;;;4758053;30;20212;-80
2023/07/06 06:35:23;;;;;;;9.48;5.85;;;;;;;;;;4743496;30;20242;-79
2023/07/06 06:37:50;;;;;;;12.23;6.03;;;20.40;99.90;;;;;;4751514;30;20579;-80
2023/07/06 06:40:19;;;;;;;10.63;5.75;;;21.20;99.90;;;;;;4746131;30;20219;-80
2023/07/06 06:42:47;;;;;;;9.82;5.95;;;;;;;;;;4742052;30;20215;-80
2023/07/06 06:45:19;;;;;;;12.60;6.03;;;22.40;99.90;;;;;;4744915;30;20593;-78
2023/07/06 06:47:46;;;;;;;12.68;6.55;;;22.60;99.90;;;;;;4740298;30;20220;-80
2023/07/06 06:50:19;;;;;;;10.15;5.93;;;23.00;99.90;;;;;;4743531;30;20216;-80
2023/07/06 06:52:48;;;;;;;11.07;5.72;;;23.50;99.90;;;;;;4739277;30;20215;-79
2023/07/06 06:55:15;;;;;;;11.35;6.68;;;23.80;99.90;;;;;;4742248;30;20220;-78
2023/07/06 06:57:43;;;;;;;13.88;6.13;;;24.20;99.90;;;;;;4739912;30;20244;-80
2023/07/06 07:00:13;;;;;;;8.20;5.80;;;24.60;99.90;;;;;;4737220;30;20840;-78
2023/07/06 07:02:41;;;;;;;11.65;6.93;;;24.40;99.90;;;;;;4736579;30;20229;-80
2023/07/06 07:05:09;;;;;;;12.02;6.63;;;24.30;99.90;;;;;;4739262;30;20224;-80
2023/07/06 07:07:39;;;;;;;12.65;6.97;;;24.10;99.90;;;;;;4742149;30;20709;-79
2023/07/06 07:10:10;;;;;;;9.98;6.40;;;23.40;99.90;;;;;;4727938;30;20274;-79
2023/07/06 07:12:41;;;;;;;11.20;7.22;;;22.70;99.90;;;;;;4744566;30;20212;-78
2023/07/06 07:15:10;;;;;;;13.55;7.75;;;21.90;99.90;;;;;;4740822;30;20259;-79
2023/07/06 07:17:38;;;;;;;11.73;6.90;;;21.90;99.90;;;;;;4741750;30;20550;-81
2023/07/06 07:20:06;;;;;;;13.77;7.10;;;21.40;99.90;;;;;;4746899;30;20199;-80
2023/07/06 07:22:33;;;;;;;11.65;6.47;;;;;;;;;;4748385;30;20519;-81
2023/07/06 07:25:02;;;;;;;13.75;6.05;;;21.30;99.90;;;;;;4731080;30;20215;-79
2023/07/06 07:27:29;;;;;;;8.77;6.28;;;21.40;99.90;;;;;;4742403;30;20228;-80
2023/07/06 07:29:58;;;;;;;9.32;6.40;;;21.50;99.90;;;;;;4743973;30;20233;-81
2023/07/06 07:32:25;;;;;;;9.63;6.15;;;21.60;99.90;;;;;;4740116;30;20623;-80
2023/07/06 07:34:51;;;;;;;11.48;7.38;;;21.40;99.90;;;;;;4743258;30;20235;-81
2023/07/06 07:37:19;;;;;;;13.07;6.60;;;21.40;99.90;;;;;;4742540;30;20216;-81
2023/07/06 07:39:48;;;;;;;11.38;5.88;;;21.40;99.90;;;;;;4741736;30;20604;-80
2023/07/06 07:42:16;;;;;;;14.35;5.60;;;21.40;99.90;;;;;;4736222;30;20216;-80
2023/07/06 07:44:47;;;;;;;9.27;5.97;;;21.60;99.90;;;;;;4724006;30;20215;-82
2023/07/06 07:47:18;;;;;;;12.57;5.93;;;21.80;99.90;;;;;;4738279;30;20673;-80
2023/07/06 07:49:46;;;;;;;13.07;6.13;;;21.70;99.90;;;;;;4737177;30;20224;-79
2023/07/06 07:52:14;;;;;;;11.25;6.18;;;22.00;99.90;;;;;;4746888;30;20288;-80
2023/07/06 07:54:43;;;;;;;9.45;5.28;;;22.00;99.90;;;;;;4727402;30;20749;-80
2023/07/06 07:57:12;;;;;;;14.65;5.50;;;22.00;99.90;;;;;;4741473;30;20347;-79
2023/07/06 07:59:38;;;;;;;9.73;5.70;;;22.30;99.90;;;;;;4739217;30;20263;-80
2023/07/06 08:02:07;;;;;;;9.35;5.50;;;22.90;99.90;;;;;;4742273;30;20209;-80
2023/07/06 08:04:35;;;;;;;12.13;6.07;;;23.50;99.90;;;;;;4728605;30;20216;-80
2023/07/06 08:07:05;;;;;;;11.18;5.82;;;24.00;99.90;;;;;;4745551;30;20564;-80
2023/07/06 08:09:32;;;;;;;11.23;5.40;;;24.50;99.90;;;;;;4729278;30;20220;-80
2023/07/06 08:11:59;;;;;;;10.77;5.38;;;25.10;99.90;;;;;;4743360;30;20209;-80
2023/07/06 08:14:41;;;;;;;10.32;5.15;;;25.40;99.90;;;;;;4747672;30;20220;-80
2023/07/06 08:17:10;;;;;;;13.00;5.13;;;25.40;99.90;;;;;;4741604;30;20641;-80
2023/07/06 08:19:37;;;;;;;12.18;5.22;;;25.60;99.90;;;;;;4725009;30;20243;-80
2023/07/06 08:22:24;;;;;;;8.80;4.78;;;25.70;99.90;;;;;;4744530;30;20622;-82
2023/07/06 08:24:52;;;;;;;9.30;5.07;;;25.70;99.90;;;;;;4744020;30;20262;-80
2023/07/06 08:27:19;;;;;;;11.40;4.40;;;25.90;99.90;;;;;;4743578;30;20216;-78
2023/07/06 08:29:49;;;;;;;8.32;4.50;;;26.00;99.90;;;;;;4744204;30;20236;-77
2023/07/06 08:32:19;;;;;;;11.50;5.30;;;26.10;99.90;;;;;;4743474;30;20242;-79
2023/07/06 08:34:47;;;;;;;11.75;4.82;;;26.30;99.90;;;;;;4729383;30;20230;-79
2023/07/06 08:37:17;;;;;;;10.23;4.95;;;26.40;99.90;;;;;;4742047;30;20264;-78
2023/07/06 08:39:44;;;;;;;8.30;4.15;;;26.40;99.90;;;;;;4727923;30;20240;-78
2023/07/06 08:42:18;;;;;;;8.75;4.60;;;26.70;99.90;;;;;;4728223;30;20216;-79
2023/07/06 08:44:55;;;;;;;9.25;4.43;;;26.70;99.90;;;;;;4738385;30;20561;-79
2023/07/06 08:47:25;;;;;;;8.68;4.20;;;26.50;99.90;;;;;;4740286;30;20207;-80
2023/07/06 08:49:54;;;;;;;6.13;4.40;;;26.00;99.90;;;;;;4722301;30;20276;-79
2023/07/06 08:52:21;;;;;;;11.57;4.60;;;25.90;99.90;;;;;;4744053;30;20217;-79
2023/07/06 08:54:52;;;;;;;11.52;5.03;;;25.70;99.90;;;;;;4745163;30;20200;-81
2023/07/06 08:57:22;;;;;;;9.05;4.47;;;25.40;99.90;;;;;;4742961;30;20292;-80
2023/07/06 08:59:51;;;;;;;8.05;4.57;;;25.10;99.90;;;;;;4741072;30;20231;-81
2023/07/06 09:02:24;;;;;;;8.65;4.93;;;24.80;99.90;;;;;;4742874;30;20303;-81
2023/07/06 09:04:53;;;;;;;8.50;4.93;;;24.90;99.90;;;;;;4745452;30;20643;-79
2023/07/06 09:07:32;;;;;;;7.80;4.15;;;25.00;99.90;;;;;;4745087;30;20221;-80
2023/07/06 09:09:59;;;;;;;8.10;4.88;;;24.80;99.90;;;;;;4744739;30;20309;-81
2023/07/06 09:12:47;;;;;;;7.72;5.30;;;24.30;99.90;;;;;;4732588;30;20216;-80
2023/07/06 09:15:18;;;;;;;7.72;3.90;;;24.10;99.90;;;;;;4739811;30;20268;-80
2023/07/06 09:17:52;;;;;;;6.70;4.13;;;24.20;99.90;;;;;;4742840;30;20222;-79
2023/07/06 09:20:21;;;;;;;6.38;3.80;;;24.50;99.90;;;;;;4745378;30;20306;-81
2023/07/06 09:22:51;;;;;;;10.50;4.93;;;24.70;99.90;;;;;;4740365;30;20275;-81
2023/07/06 09:25:26;;;;;;;7.60;4.18;;;24.90;99.90;;;;;;4732248;30;20315;-79
2023/07/06 09:27:56;;;;;;;6.45;4.60;;;25.00;99.90;;;;;;4730957;30;20708;-80
2023/07/06 09:30:32;;;;;;;8.57;4.07;;;25.00;99.90;;;;;;4738888;30;20293;-81
2023/07/06 09:33:24;;;;;;;8.05;4.88;;;24.70;99.90;;;;;;4726664;30;20220;-80
2023/07/06 09:35:54;;;;;;;8.52;5.25;;;24.80;99.90;;;;;;4734335;30;20228;-81
2023/07/06 09:38:25;;;;;;;8.13;4.50;;;24.60;99.90;;;;;;4734050;30;20223;-81
2023/07/06 09:40:53;;;;;;;9.35;4.72;;;24.30;99.90;;;;;;4751858;30;20574;-80
2023/07/06 09:43:38;;;;;;;8.73;4.85;;;24.20;99.90;;;;;;4753579;30;20207;-81
2023/07/06 09:46:09;;;;;;;7.80;5.38;;;24.40;99.90;;;;;;4741725;30;20228;-81
2023/07/06 09:48:38;;;;;;;11.30;5.20;;;24.40;99.90;;;;;;4729581;30;20588;-78
2023/07/06 09:51:39;;;;;;;6.07;4.70;;;24.50;99.90;;;;;;4745463;30;20217;-79
2023/07/06 09:54:13;;;;;;;8.35;5.18;;;24.40;99.90;;;;;;4747843;30;20215;-82
2023/07/06 09:56:40;;;;;;;12.07;5.03;;;24.40;99.90;;;;;;4740565;30;20236;-81
2023/07/06 09:59:11;;;;;;;8.45;4.78;;;24.50;99.90;;;;;;4722618;30;21562;-81
2023/07/06 10:01:53;;;;;;;10.55;5.07;;;24.80;99.90;;;;;;4726050;30;20225;-82
2023/07/06 10:04:20;;;;;;;8.40;5.07;;;25.20;99.90;;;;;;4746181;30;20260;-82
2023/07/06 10:07:09;;;;;;;10.18;5.28;;;25.20;99.90;;;;;;4745641;30;20217;-82
2023/07/06 10:09:43;;;;;;;7.22;4.93;;;25.30;99.90;;;;;;4719071;30;20236;-80
2023/07/06 10:12:39;;;;;;;7.95;4.70;;;25.10;99.90;;;;;;4743960;30;20214;-79
2023/07/06 10:15:33;;;;;;;7.47;4.85;;;24.50;99.90;;;;;;4739211;30;20220;-80
2023/07/06 10:18:24;;;;;;;7.28;5.00;;;24.20;99.90;;;;;;4743022;30;20213;-79
2023/07/06 10:21:08;;;;;;;7.85;4.55;;;23.90;99.90;;;;;;4720859;30;20278;-80
2023/07/06 10:23:54;;;;;;;7.13;4.65;;;23.70;99.90;;;;;;4737262;30;20247;-86
2023/07/06 10:26:30;;;;;;;7.85;4.25;;;23.70;99.90;;;;;;4741886;30;20216;-80
2023/07/06 10:29:03;;;;;;;6.22;4.32;;;23.80;99.90;;;;;;4739495;30;20248;-80
2023/07/06 10:31:37;;;;;;;5.82;4.20;;;23.70;99.90;;;;;;4727154;30;20714;-80
2023/07/06 10:34:32;;;;;;;8.27;3.97;;;23.70;99.90;;;;;;4725511;30;20610;-81
2023/07/06 10:37:03;;;;;;;6.63;4.05;;;23.70;99.90;;;;;;4719708;30;20273;-82
2023/07/06 10:39:30;;;;;;;5.97;3.42;;;23.70;99.90;;;;;;4740924;30;20216;-80
2023/07/06 10:42:02;;;;;;;5.47;3.10;;;23.90;99.90;;;;;;4747688;30;20223;-81
2023/07/06 10:44:44;;;;;;;10.52;4.30;;;24.30;99.90;;;;;;4742605;30;20566;-82
2023/07/06 10:47:36;;;;;;;5.05;3.42;;;24.60;99.90;;;;;;4740682;30;20249;-84
2023/07/06 10:50:14;;;;;;;7.93;3.50;;;24.80;99.90;;;;;;4741165;30;20323;-80
2023/07/06 10:52:43;;;;;;;4.80;2.85;;;24.80;99.90;;;;;;4744003;30;20293;-80
2023/07/06 10:55:35;;;;;;;5.22;2.50;;;24.90;99.90;;;;;;4739661;30;20247;-82
2023/07/06 10:58:17;;;;;;;4.63;3.13;;;25.20;99.90;;;;;;4737765;30;20576;-81
2023/07/06 11:00:50;;;;;;;3.90;2.65;;;25.40;99.90;;;;;;4726694;30;20251;-80
2023/07/06 11:03:23;;;;;;;7.50;2.95;;;25.30;99.90;;;;;;4740578;30;20243;-80
2023/07/06 11:06:06;;;;;;;4.47;3.45;;;25.30;99.90;;;;;;4738857;30;20314;-82
2023/07/06 11:09:11;;;;;;;3.58;2.72;;;25.10;99.90;;;;;;4742023;30;20773;-81
2023/07/06 11:11:54;;;;;;;4.03;2.20;;;25.00;99.90;;;;;;4742004;30;20278;-82
2023/07/06 11:14:31;;;;;;;3.92;2.50;;;25.10;99.90;;;;;;4720610;30;20216;-81
2023/07/06 11:17:04;;;;;;;5.57;3.10;;;25.30;99.90;;;;;;4737314;30;20215;-82
2023/07/06 11:19:38;;;;;;;4.65;2.30;;;25.20;99.90;;;;;;4731145;30;20269;-84
2023/07/06 11:22:11;;;;;;;6.10;2.58;;;25.10;99.90;;;;;;4722114;30;20220;-84
2023/07/06 11:24:43;;;;;;;4.82;2.40;;;25.30;99.90;;;;;;4744212;30;20209;-81
2023/07/06 11:27:24;;;;;;;5.68;2.92;;;25.50;99.90;;;;;;4742316;30;20215;-82
2023/07/06 11:29:54;;;;;;;7.65;2.90;;;25.50;99.90;;;;;;4741716;30;20327;-84
2023/07/06 11:32:34;;;;;;;3.95;2.78;;;25.70;99.90;;;;;;4746955;30;20211;-88
2023/07/06 11:35:24;;;;;;;3.90;2.60;;;25.80;99.90;;;;;;4726580;30;20617;-84
2023/07/06 11:37:57;;;;;;;5.55;2.45;;;25.80;99.90;;;;;;4739744;30;20301;-81
2023/07/06 11:40:38;;;;;;;3.38;2.40;;;25.60;99.90;;;;;;4729898;30;20207;-84
2023/07/06 11:43:57;;;;;;;4.80;2.63;;;25.70;99.90;;;;;;4724550;30;20279;-82
2023/07/06 11:46:45;;;;;;;5.10;2.58;;;25.90;99.90;;;;;;4688587;30;20724;-83
2023/07/06 11:49:24;;;;;;;3.05;2.40;;;26.20;99.90;;;;;;4740195;30;20268;-82
2023/07/06 11:51:51;;;;;;;5.30;2.38;;;26.30;99.90;;;;;;4729944;30;20704;-83
2023/07/06 11:57:24;;;;;;;5.80;2.45;;;26.10;99.90;;;;;;4740941;30;20239;-83
2023/07/06 12:00:17;;;;;;;6.45;2.72;;;26.20;99.90;;;;;;4720941;30;20231;-81
2023/07/06 12:02:58;;;;;;;5.30;2.65;;;26.40;99.90;;;;;;4722060;30;20670;-82
2023/07/06 12:05:40;;;;;;;7.10;2.67;;;26.20;99.90;;;;;;4743532;30;20211;-85
2023/07/06 12:08:29;;;;;;;4.88;3.17;;;26.20;99.90;;;;;;4740677;30;20208;-86
2023/07/06 12:11:05;;;;;;;4.35;2.90;;;25.70;99.90;;;;;;4733349;30;20214;-81
2023/07/06 12:13:41;;;;;;;3.67;2.80;;;25.20;99.90;;;;;;4728743;30;20493;-83
2023/07/06 12:16:19;;;;;;;6.38;3.15;;;24.80;99.90;;;;;;4727162;30;20239;-82
2023/07/06 12:18:55;;;;;;;7.70;3.88;;;24.50;99.90;;;;;;4739929;30;20208;-82
2023/07/06 12:21:32;;;;;;;6.68;3.42;;;24.00;99.90;;;;;;4742874;30;20225;-84
2023/07/06 12:24:03;;;;;;;6.20;3.65;;;23.90;99.90;;;;;;4742592;30;20307;-81
2023/07/06 12:26:31;;;;;;;7.07;3.90;;;23.70;99.90;;;;;;4725314;30;20231;-84
2023/07/06 12:29:01;;;;;;;7.47;4.15;;;23.30;99.90;;;;;;4733124;30;20228;-85
2023/07/06 12:31:31;;;;;;;7.18;4.32;;;23.50;99.90;;;;;;4721147;30;20271;-85
2023/07/06 12:34:00;;;;;;;5.60;3.95;;;23.40;99.90;;;;;;4728620;30;20283;-83
2023/07/06 12:36:41;;;;;;;7.10;5.18;;;24.00;99.90;;;;;;4741148;30;20248;-85
2023/07/06 12:39:20;;;;;;;8.68;5.05;;;23.10;99.90;;;;;;4725455;30;20694;-88
2023/07/06 12:41:51;;;;;;;8.85;5.45;;;22.80;99.90;;;;;;4727388;30;20270;-83
2023/07/06 12:44:21;;;;;;;12.13;6.03;;;22.80;99.90;;;;;;4729072;30;20744;-82
2023/07/06 12:46:53;;;;;;;9.27;5.65;;;22.70;99.90;;;;;;4732092;30;20238;-82
2023/07/06 12:49:22;;;;;;;8.20;5.18;;;22.50;99.90;;;;;;4745653;30;20690;-81
2023/07/06 12:51:54;;;;;;;7.45;4.68;;;22.30;99.90;;;;;;4750530;29;20239;-81
2023/07/06 12:54:28;;;;;;;9.75;5.03;;;22.30;99.90;;;;;;4749602;30;20292;-82
2023/07/06 12:57:00;;;;;;;7.40;4.30;;;22.00;99.90;;;;;;4764547;29;20194;-82
2023/07/06 12:59:36;;;;;;;9.57;4.63;;;22.00;99.90;;;;;;4751753;30;20209;-84
2023/07/06 13:02:20;;;;;;;8.57;4.22;;;22.00;99.90;;;;;;4755540;30;20332;-83
2023/07/06 13:04:49;;;;;;;9.35;3.65;;;21.90;99.90;;;;;;4735928;30;20208;-81
2023/07/06 13:07:18;;;;;;;8.93;3.83;;;21.80;99.90;;;;;;4728488;30;20712;-83
2023/07/06 13:09:47;;;;;;;7.00;3.88;;;21.80;99.90;;;;;;4746447;30;20240;-83
2023/07/06 13:12:24;;;;;;;8.45;4.07;;;21.80;99.90;;;;;;4731836;30;20261;-85
2023/07/06 13:14:52;;;;;;;6.50;3.85;;;21.70;99.90;;;;;;4727962;30;20223;-82